Latest Weather Observations for Cooma Airport

IDN60801

Issued at 3:02 pm EST Monday 25 May 2015 (issued every 30 minutes, with the page automatically refreshed every 10 minutes)

About weather observations | Map of weather stations | Latest weather observations for NSW | Other Formats
Station Details ID: 070217 Name: COOMA AIRPORT AWS Lat: -36.29 Lon: 148.97 Height: 930.0 m
Data from the previous 72 hours. | See also: Recent months for locations in New South Wales
Date/Time
EST
Temp
°C
App
Temp
°C
Dew
Point
Rel
Hum
%
Delta-T
°C
Wind Press
QNH
hPa
Press
MSL
hPa
Rain
since 9 am
mm
Dir
 
Spd
km/h
Gust
km/h
Spd
kts
Gust
kts
25/03:00pm 12.8 7.8 -4.3 30 6.7 SSE 13 17 7 9 1028.9 1029.4 0.0
25/02:30pm 13.6 7.6 -2.8 32 6.7 SSE 19 22 10 12 1028.7 1029.1 0.0
25/02:00pm 15.5 11.9 -2.0 30 7.5 N 7 13 4 7 1028.9 1029.4 0.0
25/01:30pm 14.5 10.2 -2.0 32 7.0 NNE 11 15 6 8 1028.8 1029.2 0.0
25/01:00pm 15.0 11.6 -2.0 31 7.2 ENE 6 11 3 6 1028.9 1029.4 0.0
25/12:30pm 12.9 9.8 1.3 45 5.2 ENE 7 9 4 5 1029.4 1029.8 0.0
25/12:00pm 11.1 8.1 1.1 50 4.4 NE 6 7 3 4 1030.0 1030.5 0.0
25/11:30am 8.8 4.9 -1.3 49 4.1 NE 9 11 5 6 1030.7 1031.1 0.0
25/11:00am 8.5 3.9 -1.0 51 3.9 NNE 13 15 7 8 1030.9 1031.4 0.0
25/10:30am 6.8 2.2 -0.9 58 3.1 NNE 13 15 7 8 1031.1 1031.6 0.0
25/10:00am 5.3 0.6 -1.6 61 2.7 NNE 13 15 7 8 1031.1 1031.6 0.0
25/09:30am 4.5 -0.3 -2.4 61 2.6 NE 13 15 7 8 1031.2 1031.7 0.0
25/09:00am 2.6 -2.1 -1.7 73 1.6 NE 13 19 7 10 1031.4 1031.9 0.0
25/08:30am 0.5 -4.2 -2.0 83 0.9 NNE 13 17 7 9 1031.3 1031.8 0.0
25/08:00am -1.2 -5.3 -3.1 87 0.6 N 9 11 5 6 1031.2 1031.7 0.0
25/07:30am -2.7 -7.0 -4.7 86 0.5 NE 9 11 5 6 1031.3 1031.8 0.0
25/07:00am -1.7 -5.4 -4.4 82 0.8 NW 6 9 3 5 1031.3 1031.8 0.0
25/06:30am -2.0 -5.8 -5.1 79 0.9 N 6 13 3 7 1031.3 1031.8 0.0
25/06:00am -2.0 -5.9 -4.7 82 0.8 N 7 11 4 6 1030.6 1031.0 0.0
25/05:30am -2.9 -7.2 -4.6 88 0.4 NNE 9 9 5 5 1030.7 1031.1 0.0
25/05:00am -4.6 -8.6 -7.8 78 0.8 N 6 9 3 5 1030.9 1031.4 0.0
25/04:30am -2.2 -6.2 -5.5 78 1.0 N 7 9 4 5 1030.6 1031.0 0.0
25/04:00am -2.2 -6.0 -6.0 75 1.1 N 6 11 3 6 1030.6 1031.0 0.0
25/03:30am -1.3 -5.6 -4.6 78 1.1 N 9 13 5 7 1030.7 1031.1 0.0
25/03:00am -3.1 -7.1 -5.4 84 0.6 NNE 7 11 4 6 1030.6 1031.0 0.0
25/02:30am -3.4 -7.9 -6.7 78 0.9 NNE 9 11 5 6 1030.8 1031.3 0.0
25/02:00am -4.2 -8.8 -7.6 77 0.8 NNE 9 11 5 6 1031.0 1031.5 0.0
25/01:30am -3.2 -8.1 -6.6 77 0.9 NNE 11 11 6 6 1031.1 1031.6 0.0
25/01:00am -4.4 -9.3 -7.6 78 0.8 NNE 11 13 6 7 1031.2 1031.7 0.0
25/12:30am -4.3 -8.4 -7.1 81 0.7 N 7 9 4 5 1031.4 1031.9 0.0
25/12:00am -4.7 -9.2 -7.3 82 0.6 NNE 9 9 5 5 1031.5 1032.0 0.0
 
Date/Time
EST
Temp
°C
App
Temp
°C
Dew
Point
Rel
Hum
%
Delta-T
°C
Wind Press
QNH
hPa
Press
MSL
hPa
Rain
since 9 am
mm
Dir
 
Spd
km/h
Gust
km/h
Spd
kts
Gust
kts
24/11:30pm -4.2 -8.3 -7.0 81 0.7 N 7 11 4 6 1031.5 1032.0 0.0
24/11:00pm -4.0 -8.0 -7.1 79 0.8 NE 6 9 3 5 1031.6 1032.2 0.0
24/10:30pm -2.7 -6.7 -6.0 78 0.9 N 7 7 4 4 1031.6 1032.2 0.0
24/10:00pm -3.3 -6.0 -6.4 79 0.8 CALM 0 0 0 0 1031.9 1032.4 0.0
24/09:34pm -2.8 -5.5 -6.4 76 1.0 CALM 0 0 0 0 1031.8 1032.3 0.0
24/09:30pm -2.7 -5.4 -6.3 76 1.0 CALM 0 0 0 0 1031.9 1032.4 0.0
24/09:01pm -0.6 -3.2 -5.2 71 1.5 CALM 0 0 0 0 1031.6 1032.2 0.0
24/09:00pm -0.6 -3.2 -5.2 71 1.5 CALM 0 0 0 0 1031.6 1032.2 0.0
24/08:39pm -2.2 -4.9 -5.8 76 1.1 CALM 0 0 0 0 1031.8 1032.3 0.0
24/08:30pm -0.4 -3.0 -4.8 72 1.5 CALM 0 0 0 0 1031.6 1032.2 0.0
24/08:26pm -0.6 -3.2 -4.5 75 1.3 CALM 0 0 0 0 1031.6 1032.2 0.0
24/08:14pm -1.0 -3.6 -5.2 73 1.4 CALM 0 0 0 0 1031.5 1032.0 0.0
24/08:00pm 0.7 -1.8 -4.3 69 1.8 CALM 0 0 0 0 1031.6 1032.2 0.0
24/07:56pm 0.6 -2.0 -4.6 68 1.8 CALM 0 0 0 0 1031.5 1032.0 0.0
24/07:30pm 0.5 -2.0 -3.9 72 1.6 CALM 0 0 0 0 1031.5 1032.0 0.0
24/07:08pm 0.4 -2.1 -3.9 73 1.5 CALM 0 0 0 0 1031.4 1031.9 0.0
24/07:00pm 1.2 -1.3 -3.7 70 1.8 CALM 0 0 0 0 1031.3 1031.8 0.0
24/06:38pm 1.7 -0.8 -3.6 68 2.0 CALM 0 0 0 0 1031.3 1031.8 0.0
24/06:30pm 1.6 -0.8 -3.3 70 1.8 CALM 0 0 0 0 1031.2 1031.7 0.0
24/06:00pm 2.2 -0.2 -3.5 66 2.0 CALM 0 0 0 0 1031.1 1031.6 0.0
24/05:30pm 2.3 -0.2 -4.4 61 2.5 CALM 0 0 0 0 1030.9 1031.4 0.0
24/05:18pm 2.6 0.1 -4.1 61 2.4 CALM 0 0 0 0 1030.8 1031.3 0.0
24/05:00pm 5.4 2.7 -5.9 44 3.9 CALM 0 0 0 0 1030.7 1031.1 0.0
24/04:41pm 8.8 5.8 -4.7 38 5.1 SSW 2 6 1 3 1030.8 1031.3 0.0
24/04:32pm 9.2 5.3 -6.2 33 5.6 SSW 6 7 3 4 1030.7 1031.1 0.0
24/04:30pm 9.4 5.6 -6.0 33 5.7 SSW 6 7 3 4 1030.7 1031.1 0.0
24/04:21pm 11.4 7.4 -6.0 29 6.6 S 7 7 4 4 1030.6 1031.0 0.0
24/04:00pm 12.5 8.1 -5.5 28 6.9 S 9 11 5 6 1030.4 1030.9 0.0
24/03:30pm 13.8 8.9 -6.9 23 7.9 S 11 17 6 9 1030.1 1030.6 0.0
24/03:00pm 14.6 9.6 -8.1 20 8.4 SSW 11 15 6 8 1030.2 1030.7 0.0
24/02:30pm 14.7 9.3 -8.0 20 8.5 S 13 17 7 9 1030.0 1030.5 0.0
24/02:00pm 14.7 9.0 -13.4 13 9.3 S 13 20 7 11 1030.1 1030.6 0.0
24/01:48pm 14.7 9.1 -11.6 15 9.1 S 13 19 7 10 1030.0 1030.5 0.0
24/01:30pm 14.7 9.5 -10.8 16 9.0 SSW 11 17 6 9 1030.2 1030.7 0.0
24/01:26pm 14.7 9.4 -11.6 15 9.1 SSW 11 17 6 9 1030.3 1030.8 0.0
24/01:00pm 14.5 9.1 -13.5 13 9.2 SSW 11 17 6 9 1030.3 1030.8 0.0
24/12:30pm 13.7 8.4 -11.6 16 8.7 SSW 11 19 6 10 1030.4 1030.9 0.0
24/12:00pm 13.1 10.4 -5.9 26 7.3 CALM 0 0 0 0 1030.9 1031.4 0.0
24/11:30am 9.7 6.1 -1.9 44 4.7 NE 7 9 4 5 1031.2 1031.7 0.0
24/11:00am 7.6 3.1 -3.0 47 4.1 NE 11 13 6 7 1031.5 1032.0 0.0
24/10:30am 6.0 1.5 -3.4 51 3.5 NE 11 15 6 8 1031.9 1032.4 0.0
24/10:00am 4.0 -0.9 -3.5 58 2.7 NE 13 15 7 8 1031.8 1032.3 0.0
24/09:30am 2.0 -2.6 -3.7 66 2.1 NE 11 13 6 7 1031.8 1032.3 0.0
24/09:00am 0.2 -4.4 -3.9 74 1.4 NE 11 13 6 7 1031.9 1032.4 0.0
24/08:30am -1.5 -5.8 -4.5 80 0.9 NE 9 11 5 6 1031.6 1032.2 0.0
24/08:00am -4.4 -8.5 -6.5 85 0.5 NNE 7 9 4 5 1031.5 1032.0 0.0
24/07:30am -7.1 -11.2 -9.2 85 0.3 N 6 9 3 5 1031.1 1031.6 0.0
24/07:00am -8.9 -13.2 -11.0 85 0.2 N 6 9 3 5 1030.9 1031.4 0.0
24/06:30am -8.6 -11.7 -10.8 84 0.3 CALM 0 0 0 0 1030.7 1031.1 0.0
24/06:00am -8.6 -11.7 -10.7 85 0.3 CALM 0 0 0 0 1030.3 1030.8 0.0
24/05:30am -8.8 -11.9 -11.3 82 0.3 CALM 0 0 0 0 1030.1 1030.6 0.0
24/05:00am -8.4 -11.5 -10.6 84 0.3 CALM 0 0 0 0 1029.9 1030.4 0.0
24/04:30am -8.0 -11.1 -10.5 82 0.4 CALM 0 0 0 0 1029.7 1030.1 0.0
24/04:00am -7.8 -10.9 -10.2 83 0.4 CALM 0 0 0 0 1029.7 1030.1 0.0
24/03:30am -7.5 -10.5 -9.9 83 0.4 CALM 0 0 0 0 1029.7 1030.1 0.0
24/03:00am -7.1 -10.1 -9.5 83 0.4 CALM 0 0 0 0 1029.8 1030.3 0.0
24/02:30am -6.7 -9.7 -8.8 85 0.3 CALM 0 0 0 0 1029.7 1030.1 0.0
24/02:00am -6.8 -9.8 -8.9 85 0.3 CALM 0 0 0 0 1029.8 1030.3 0.0
24/01:30am -6.9 -9.9 -8.8 86 0.3 CALM 0 0 0 0 1029.6 1030.0 0.0
24/01:00am -6.5 -9.4 -8.4 86 0.3 CALM 0 0 0 0 1029.5 1029.9 0.0
24/12:30am -6.3 -9.2 -8.5 84 0.4 CALM 0 0 0 0 1029.6 1030.0 0.0
24/12:00am -6.0 -8.9 -8.0 86 0.3 CALM 0 0 0 0 1029.7 1030.1 0.0
 
Date/Time
EST
Temp
°C
App
Temp
°C
Dew
Point
Rel
Hum
%
Delta-T
°C
Wind Press
QNH
hPa
Press
MSL
hPa
Rain
since 9 am
mm
Dir
 
Spd
km/h
Gust
km/h
Spd
kts
Gust
kts
23/11:30pm -6.3 -9.2 -8.5 84 0.4 CALM 0 0 0 0 1029.7 1030.1 0.0
23/11:00pm -5.4 -8.3 -8.3 80 0.6 CALM 0 0 0 0 1029.7 1030.1 0.0
23/10:30pm -4.4 -7.2 -6.7 84 0.5 CALM 0 0 0 0 1029.8 1030.3 0.0
23/10:00pm -4.5 -7.7 -7.1 82 0.6 SSW 2 6 1 3 1030.1 1030.6 0.0
23/09:30pm -3.7 -6.4 -6.3 82 0.7 CALM 0 0 0 0 1030.1 1030.6 0.0
23/09:00pm -2.9 -5.5 -4.6 88 0.4 CALM 0 0 0 0 1030.2 1030.7 0.0
23/08:30pm -3.0 -5.7 -6.0 80 0.8 CALM 0 0 0 0 1030.1 1030.6 0.0
23/08:00pm -0.6 -4.3 -4.3 76 1.2 SW 6 7 3 4 1030.0 1030.5 0.0
23/07:30pm -0.2 -4.3 -3.4 79 1.1 SSW 9 11 5 6 1029.8 1030.3 0.0
23/07:00pm 3.2 -1.9 -1.9 69 1.9 W 15 17 8 9 1029.8 1030.3 0.0
23/06:30pm -0.2 -5.6 -4.3 74 1.4 WSW 15 17 8 9 1029.6 1030.0 0.0
23/06:00pm 2.5 -2.5 -4.2 61 2.3 WSW 13 15 7 8 1029.5 1029.9 0.0
23/05:30pm 4.0 -1.7 -3.5 58 2.7 SW 17 19 9 10 1029.0 1029.5 0.0
23/05:00pm 6.1 0.7 -4.3 47 3.8 SSW 15 15 8 8 1028.9 1029.4 0.0
23/04:30pm 9.0 4.2 -2.6 44 4.6 SSW 13 15 7 8 1028.8 1029.2 0.0
23/04:00pm 11.7 5.7 -6.2 28 6.7 SSW 17 20 9 11 1028.7 1029.1 0.0
23/03:30pm 12.8 6.4 -6.7 25 7.3 SSW 19 22 10 12 1028.4 1028.8 0.0
23/03:00pm 13.3 7.0 -6.3 25 7.4 SSW 19 26 10 14 1028.3 1028.7 0.0
23/02:30pm 12.8 6.1 -4.3 30 6.8 SSW 22 28 12 15 1028.3 1028.7 0.0
23/02:00pm 12.6 5.9 -4.5 30 6.7 SSW 22 28 12 15 1028.0 1028.5 0.0
23/01:30pm 12.3 6.3 -2.7 35 6.1 SSW 19 26 10 14 1028.1 1028.6 0.0
23/01:00pm 12.0 6.1 -2.2 37 5.8 SW 19 24 10 13 1028.4 1028.8 0.0
23/12:30pm 10.9 5.4 -2.1 40 5.3 SSW 17 24 9 13 1028.6 1029.0 0.0
23/12:00pm 10.3 5.4 -3.0 39 5.3 SSW 13 19 7 10 1029.0 1029.5 0.0
23/11:30am 9.1 4.8 -1.3 48 4.3 SSW 11 15 6 8 1029.5 1029.9 0.0
23/11:00am 8.8 5.5 0.0 54 3.7 SSW 7 11 4 6 1029.8 1030.3 0.0
23/10:30am 6.7 3.8 1.2 68 2.3 S 6 9 3 5 1030.1 1030.6 0.0
23/10:00am 4.8 1.9 1.5 79 1.4 SSW 6 11 3 6 1030.2 1030.7 0.0
23/09:30am 3.5 -0.4 1.2 85 0.9 SSW 11 13 6 7 1030.1 1030.6 0.0
23/09:00am 3.1 -0.7 1.5 89 0.7 WSW 11 13 6 7 1030.1 1030.6 0.0
23/08:30am 1.3 -0.6 0.4 94 0.4 CALM 0 0 0 0 1030.0 1030.5 0.0
23/08:00am -1.0 -3.5 -1.1 99 0.0 ESE 2 9 1 5 1029.8 1030.3 0.0
23/07:35am -3.9 -6.4 -4.2 98 -0.1 CALM 0 0 0 0 1029.6 1030.0 0.0
23/07:30am -4.4 -7.0 -4.9 96 0.0 CALM 0 0 0 0 1029.7 1030.1 0.0
23/07:21am -4.4 -7.0 -4.8 97 -0.1 CALM 0 0 0 0 1029.6 1030.0 0.0
23/07:12am -5.4 -8.2 -6.5 92 0.1 CALM 0 0 0 0 1029.6 1030.0 0.0
23/07:00am -4.6 -7.2 -4.9 98 -0.1 CALM 0 0 0 0 1029.5 1029.9 0.0
23/06:53am -3.3 -5.7 -3.4 99 -0.1 CALM 0 0 0 0 1029.5 1029.9 0.0
23/06:30am -3.8 -6.4 -4.8 93 0.2 CALM 0 0 0 0 1029.1 1029.6 0.0
23/06:00am -3.5 -6.1 -4.5 93 0.2 CALM 0 0 0 0 1028.9 1029.4 0.0
23/05:30am -2.8 -5.6 -3.6 94 0.1 E 2 6 1 3 1028.7 1029.1 0.0
23/05:00am -1.2 -3.5 -2.0 94 0.2 CALM 0 0 0 0 1028.5 1028.9 0.0
23/04:36am -0.5 -3.8 -1.5 93 0.3 S 6 9 3 5 1028.5 1028.9 0.0
23/04:30am -0.4 -3.7 -1.5 92 0.4 S 6 9 3 5 1028.4 1028.8 0.0
23/04:13am 0.6 -3.2 -0.8 90 0.5 W 9 13 5 7 1028.4 1028.8 0.0
23/04:00am 1.2 -2.9 -0.1 91 0.5 W 11 13 6 7 1028.3 1028.7 0.0
23/03:30am 1.9 -1.7 0.4 90 0.6 W 9 13 5 7 1028.3 1028.7 0.0
23/03:00am 2.4 -2.4 0.5 87 0.8 WSW 15 20 8 11 1028.3 1028.7 0.0
23/02:30am 3.8 -1.7 1.7 86 0.9 SW 20 26 11 14 1028.3 1028.7 0.0
23/02:00am 3.8 -1.5 1.7 86 0.9 SW 19 24 10 13 1028.4 1028.8 0.0
23/01:30am 3.8 -1.7 1.7 86 0.9 SW 20 28 11 15 1028.3 1028.7 0.0
23/01:00am 3.4 -2.2 1.4 87 0.8 SW 20 28 11 15 1028.4 1028.8 0.0
23/12:30am 2.5 -2.9 1.2 91 0.5 WSW 19 24 10 13 1028.5 1028.9 0.0
23/12:00am 2.6 -3.0 1.1 90 0.6 SW 20 24 11 13 1028.7 1029.1 0.0
 
Date/Time
EST
Temp
°C
App
Temp
°C
Dew
Point
Rel
Hum
%
Delta-T
°C
Wind Press
QNH
hPa
Press
MSL
hPa
Rain
since 9 am
mm
Dir
 
Spd
km/h
Gust
km/h
Spd
kts
Gust
kts
22/11:30pm 3.3 -2.2 2.0 91 0.5 SW 20 24 11 13 1028.8 1029.2 0.0
22/11:00pm 2.8 -2.7 2.1 95 0.3 SW 20 22 11 12 1028.6 1029.0 0.0
22/10:30pm 3.1 -2.3 2.5 96 0.3 SW 20 26 11 14 1028.5 1028.9 0.0
22/10:00pm 2.1 -2.9 1.5 96 0.2 SW 17 19 9 10 1028.6 1029.0 0.0
22/09:35pm 3.4 -2.0 2.4 93 0.4 SW 20 26 11 14 1028.6 1029.0 0.0
22/09:30pm 3.8 -1.6 2.6 92 0.5 SW 20 26 11 14 1028.5 1028.9 0.0
22/09:00pm 5.1 0.1 4.5 96 0.3 SSW 20 26 11 14 1028.4 1028.8 0.0
22/08:33pm 4.4 1.1 4.3 99 0.0 SW 11 19 6 10 1028.3 1028.7 0.0
22/08:30pm 4.2 0.8 4.1 99 0.0 SW 11 13 6 7 1028.3 1028.7 0.0
22/08:00pm 4.5 -0.1 3.5 93 0.4 SSW 17 20 9 11 1028.1 1028.6 0.0
22/07:30pm 5.2 0.0 3.4 88 0.8 SSW 20 28 11 15 1028.0 1028.5 0.0
22/07:00pm 5.3 -0.7 3.3 87 0.9 SSW 24 30 13 16 1027.6 1028.0 0.0
22/06:30pm 5.4 0.2 3.6 88 0.8 SSW 20 28 11 15 1027.4 1027.8 0.0
22/06:00pm 5.6 0.7 4.2 91 0.6 SSW 19 24 10 13 1027.1 1027.5 0.0
22/05:30pm 6.4 1.0 4.7 89 0.8 SSW 22 28 12 15 1026.6 1027.0 0.0
22/05:00pm 7.0 1.3 4.7 85 1.1 SSW 24 30 13 16 1026.4 1026.8 0.0
22/04:30pm 7.8 2.8 4.6 80 1.5 SSW 20 28 11 15 1026.2 1026.6 0.0
22/04:00pm 7.3 2.8 4.4 82 1.3 S 17 22 9 12 1025.8 1026.2 0.0
22/03:30pm 8.4 1.7 3.8 73 2.1 SSW 28 35 15 19 1025.4 1025.8 0.0

Other Formats:

Comma delimited format used in spreadsheet applications
http://www.bom.gov.au/fwo/IDN60801/IDN60801.94921.axf

JavaScript Object Notation format (JSON) in row-major order
http://www.bom.gov.au/fwo/IDN60801/IDN60801.94921.json